Time;durP1;ratioP1;P1;durP2;ratioP2;P2;SDS_P1;SDS_P2;PMS_P1;PMS_P2;Temp;Humidity;BMP_temperature;BMP_pressure;BME280_temperature;BME280_humidity;BME280_pressure;Samples;Min_cycle;Max_cycle;Signal;HPM_P1;HPM_P2
2023/09/27 00:04:11;;;;;;;16.98;8.30;;;;;;;15.28;80.07;98121.03;10285078;28;19920;-50
2023/09/27 00:09:10;;;;;;;;;;;;;;;15.21;80.23;98108.03;10288283;28;20785;-51
2023/09/27 00:14:09;;;;;;;18.15;9.82;;;;;;;15.14;80.28;98114.22;10284524;28;20623;-54
2023/09/27 00:19:09;;;;;;;;;;;;;;;15.07;80.48;98112.59;10285314;28;20476;-50
2023/09/27 00:24:08;;;;;;;16.08;9.80;;;;;;;15.01;80.29;98112.66;10283423;28;20039;-51
2023/09/27 00:29:06;;;;;;;;;;;;;;;14.97;80.50;98117.06;10284306;28;20034;-52
2023/09/27 00:34:05;;;;;;;20.90;10.43;;;;;;;14.96;80.60;98111.84;10282987;28;19913;-52
2023/09/27 00:39:04;;;;;;;;;;;;;;;14.95;80.98;98108.38;10282740;28;20524;-52
2023/09/27 00:44:03;;;;;;;17.27;10.27;;;;;;;14.88;81.07;98100.66;10283454;28;20368;-55
2023/09/27 00:49:04;;;;;;;17.58;9.80;;;;;;;14.81;81.06;98103.31;10280728;28;20061;-55
2023/09/27 00:54:03;;;;;;;15.60;9.50;;;;;;;14.75;81.55;98106.00;10282216;28;20615;-53
2023/09/27 00:59:03;;;;;;;16.00;8.30;;;;;;;14.73;81.36;98122.56;10282891;28;20129;-54
2023/09/27 01:04:03;;;;;;;13.95;7.95;;;;;;;14.67;81.03;98120.88;10282498;28;20080;-56
2023/09/27 01:09:03;;;;;;;14.75;7.55;;;;;;;14.68;80.73;98119.13;10282471;28;20536;-52
2023/09/27 01:14:02;;;;;;;16.67;8.27;;;;;;;14.64;80.32;98115.72;10283284;28;20125;-52
2023/09/27 01:19:02;;;;;;;13.43;7.75;;;;;;;14.60;80.74;98122.69;10282905;28;20121;-55
2023/09/27 01:24:01;;;;;;;12.52;6.85;;;;;;;14.60;80.21;98120.09;10282231;28;20483;-54
2023/09/27 01:29:00;;;;;;;;;;;;;;;14.58;79.54;98118.38;10283210;28;20370;-52
2023/09/27 01:33:59;;;;;;;15.23;8.63;;;;;;;14.57;79.90;98107.06;10283165;28;19997;-51
2023/09/27 01:38:58;;;;;;;;;;;;;;;14.53;80.52;98115.81;10282023;28;20145;-52
2023/09/27 01:43:57;;;;;;;15.50;9.33;;;;;;;14.52;80.76;98118.44;10281045;28;19969;-52
2023/09/27 01:48:56;;;;;;;;;;;;;;;14.47;81.26;98117.63;10264072;28;20060;-52
2023/09/27 01:53:54;;;;;;;16.92;9.50;;;;;;;14.41;81.85;98123.78;10282345;28;19919;-52
2023/09/27 01:58:53;;;;;;;18.58;10.13;;;;;;;14.36;81.92;98118.63;10282574;28;20030;-51
2023/09/27 02:03:52;;;;;;;;;;;;;;;14.33;81.62;98116.00;10282629;28;20044;-52
2023/09/27 02:08:51;;;;;;;12.25;8.30;;;;;;;14.29;81.00;98116.94;10281588;28;19928;-55
2023/09/27 02:13:50;;;;;;;;;;;;;;;14.24;80.77;98118.75;10282896;28;20120;-51
2023/09/27 02:18:49;;;;;;;16.97;8.40;;;;;;;14.23;80.40;98122.22;10285213;28;19963;-51
2023/09/27 02:23:48;;;;;;;17.17;10.55;;;;;;;14.17;80.83;98133.59;10286845;28;20037;-51
2023/09/27 02:28:47;;;;;;;;;;;;;;;14.03;81.88;98121.53;10288244;28;20416;-51
2023/09/27 02:33:46;;;;;;;39.00;24.23;;;;;;;13.92;82.04;98132.94;10289501;28;19917;-50
2023/09/27 02:38:45;;;;;;;34.10;23.60;;;;;;;13.86;81.82;98130.38;10288965;28;20157;-52
2023/09/27 02:43:44;;;;;;;37.45;25.75;;;;;;;13.83;81.99;98125.19;10289045;28;20088;-52
2023/09/27 02:48:43;;;;;;;;;;;;;;;13.83;82.02;98124.31;10288568;28;20036;-54
2023/09/27 02:53:42;;;;;;;31.90;20.83;;;;;;;13.83;82.13;98129.53;10288122;28;20004;-49
2023/09/27 02:58:41;;;;;;;20.40;11.85;;;;;;;13.75;82.63;98134.81;10288257;28;20046;-51
2023/09/27 03:03:40;;;;;;;18.35;9.35;;;;;;;13.71;82.78;98139.19;10288131;28;20485;-55
2023/09/27 03:08:39;;;;;;;15.85;9.57;;;;;;;13.69;82.53;98140.94;10287176;28;20184;-54
2023/09/27 03:13:39;;;;;;;;;;;;;;;13.64;83.16;98140.09;10287531;28;20124;-51
2023/09/27 03:18:38;;;;;;;28.38;12.43;;;;;;;13.49;83.42;98121.91;10287430;28;20004;-51
2023/09/27 03:23:37;;;;;;;;;;;;;;;13.57;83.59;98141.88;10287127;28;20029;-53
2023/09/27 03:28:36;;;;;;;24.10;15.80;;;;;;;13.63;83.44;98151.41;10283349;28;20012;-53
2023/09/27 03:33:35;;;;;;;;;;;;;;;13.62;83.26;98148.81;10286040;28;20030;-53
2023/09/27 03:38:33;;;;;;;22.95;14.20;;;;;;;13.53;83.58;98155.78;10286089;28;19922;-52
2023/09/27 03:43:32;;;;;;;17.58;12.40;;;;;;;13.50;84.04;98168.00;10286670;28;20525;-52
2023/09/27 03:48:33;;;;;;;20.20;11.90;;;;;;;13.41;84.54;98166.28;10285812;28;20124;-51
2023/09/27 03:53:33;;;;;;;15.55;12.02;;;;;;;13.34;84.85;98159.38;10285023;28;20113;-52
2023/09/27 03:58:32;;;;;;;21.10;14.07;;;;;;;13.39;84.62;98162.81;10286239;28;20053;-51
2023/09/27 04:03:31;;;;;;;;;;;;;;;13.36;84.70;98168.06;10267396;28;20038;-52
2023/09/27 04:08:32;;;;;;;25.30;15.10;;;;;;;13.31;84.83;98160.28;9950120;28;19934;-52
2023/09/27 04:13:32;;;;;;;14.25;9.60;;;;;;;13.31;84.68;98165.47;10248573;28;20133;-52
2023/09/27 04:18:32;;;;;;;22.77;10.85;;;;;;;13.31;84.46;98167.22;10283166;28;20129;-52
2023/09/27 04:23:31;;;;;;;20.98;10.35;;;;;;;13.04;84.33;98124.78;10284391;28;20061;-52
2023/09/27 04:28:30;;;;;;;;;;;;;;;13.35;84.35;98174.13;10284445;28;20068;-52
2023/09/27 04:33:29;;;;;;;18.33;12.53;;;;;;;13.38;84.40;98173.28;10284450;28;19913;-51
2023/09/27 04:38:28;;;;;;;;;;;;;;;13.44;84.09;98184.50;10284165;28;20125;-52
2023/09/27 04:43:26;;;;;;;23.30;14.07;;;;;;;13.48;84.27;98178.41;10282202;28;19921;-52
2023/09/27 04:48:25;;;;;;;25.42;15.30;;;;;;;13.48;84.72;98177.56;10282648;28;20026;-52
2023/09/27 04:53:25;;;;;;;27.25;16.75;;;;;;;13.59;84.39;98181.00;10280415;28;20880;-51
2023/09/27 04:58:24;;;;;;;24.73;16.88;;;;;;;13.35;84.34;98128.09;10281604;28;20124;-53
2023/09/27 05:03:23;;;;;;;;;;;;;;;13.81;85.04;98175.63;10280368;28;20136;-53
2023/09/27 05:08:21;;;;;;;27.42;17.05;;;;;;;13.99;85.04;98184.19;10270481;28;19925;-51
2023/09/27 05:13:21;;;;;;;26.20;17.10;;;;;;;14.22;84.55;98192.69;10274563;28;20026;-50
2023/09/27 05:18:22;;;;;;;22.25;14.55;;;;;;;14.38;83.82;98182.13;10282238;28;20173;-52
2023/09/27 05:23:21;;;;;;;24.92;14.98;;;;;;;14.58;83.42;98192.34;10283119;28;20073;-50
2023/09/27 05:28:20;;;;;;;;;;;;;;;14.69;82.76;98184.44;10279753;28;20040;-51
2023/09/27 05:33:19;;;;;;;24.17;13.82;;;;;;;14.89;81.96;98176.38;10282504;28;19964;-51
2023/09/27 05:38:18;;;;;;;;;;;;;;;15.04;81.19;98191.03;10278345;28;20476;-52
2023/09/27 05:43:17;;;;;;;25.05;13.32;;;;;;;15.12;80.96;98199.63;10261890;28;19928;-50
2023/09/27 05:48:16;;;;;;;;;;;;;;;15.39;79.06;98193.22;10280971;28;20038;-51
2023/09/27 05:53:16;;;;;;;22.65;12.10;;;;;;;15.63;78.79;98198.97;10285851;28;19920;-50
2023/09/27 05:58:15;;;;;;;22.40;13.00;;;;;;;15.44;78.23;98127.75;10288871;28;20077;-50
2023/09/27 06:03:14;;;;;;;;;;;;;;;16.08;77.37;98200.06;10290315;28;20058;-51
2023/09/27 06:08:13;;;;;;;19.90;10.70;;;;;;;16.26;75.96;98198.06;10280134;28;20012;-52
2023/09/27 06:13:12;;;;;;;;;;;;;;;16.54;74.23;98214.16;10289450;28;20042;-52
2023/09/27 06:18:12;;;;;;;22.00;11.37;;;;;;;16.72;72.78;98212.94;10289619;28;19933;-52
2023/09/27 06:23:11;;;;;;;23.02;12.02;;;;;;;16.96;72.58;98227.41;10279431;28;20081;-50
2023/09/27 06:28:15;;;;;;;25.33;12.00;;;;;;;17.03;71.41;98194.06;10287124;28;20048;-53
2023/09/27 06:33:14;;;;;;;22.70;10.50;;;;;;;17.45;70.04;98210.66;10285745;28;20121;-53
2023/09/27 06:38:13;;;;;;;18.67;9.75;;;;;;;17.76;69.07;98216.13;10286997;28;20109;-51
2023/09/27 06:43:14;;;;;;;16.70;8.02;;;;;;;17.86;64.08;98215.94;10287086;28;20113;-52
2023/09/27 06:48:13;;;;;;;17.38;7.80;;;;;;;18.08;62.78;98206.66;10285635;28;20076;-52
2023/09/27 06:53:16;;;;;;;15.18;7.40;;;;;;;18.25;61.85;98213.25;10287272;28;20740;-52
2023/09/27 06:58:22;;;;;;;28.75;7.50;;;;;;;18.50;59.72;98226.63;10289304;28;20073;-52
2023/09/27 07:03:24;;;;;;;13.25;6.72;;;;;;;18.60;59.77;98220.25;10285339;28;20136;-52
2023/09/27 07:08:23;;;;;;;14.93;7.63;;;;;;;18.47;60.05;98217.06;10279920;28;20133;-50
2023/09/27 07:13:22;;;;;;;14.23;7.22;;;;;;;18.30;60.69;98227.16;10283782;28;20037;-52
2023/09/27 07:18:22;;;;;;;16.08;7.55;;;;;;;18.49;60.83;98231.03;10282393;28;20042;-50
2023/09/27 07:23:23;;;;;;;12.23;7.25;;;;;;;18.65;59.94;98231.50;10281587;28;20604;-51
2023/09/27 07:28:22;;;;;;;16.30;6.88;;;;;;;18.83;57.07;98230.19;10284308;28;20061;-52
2023/09/27 07:33:21;;;;;;;13.10;6.80;;;;;;;18.96;56.67;98230.72;10280850;28;20025;-53
2023/09/27 07:38:20;;;;;;;15.27;6.72;;;;;;;19.17;55.70;98231.91;10281595;28;20061;-53
2023/09/27 07:43:19;;;;;;;19.23;6.47;;;;;;;19.33;54.98;98238.44;10277405;28;20034;-56
2023/09/27 07:48:21;;;;;;;17.40;6.07;;;;;;;19.62;53.64;98208.66;10274188;28;20163;-54
2023/09/27 07:53:20;;;;;;;13.10;5.82;;;;;;;19.86;53.37;98224.63;10272520;28;20895;-53
2023/09/27 07:58:19;;;;;;;11.15;5.97;;;;;;;19.75;53.42;98224.97;10272105;28;20390;-55
2023/09/27 08:03:19;;;;;;;11.45;5.85;;;;;;;20.11;52.75;98219.44;10247495;28;20562;-57
2023/09/27 08:08:18;;;;;;;11.90;6.07;;;;;;;20.02;53.03;98214.47;10276343;28;20552;-52
2023/09/27 08:13:18;;;;;;;12.15;6.28;;;;;;;20.11;52.98;98229.13;10278395;28;20123;-57
2023/09/27 08:18:17;;;;;;;12.95;6.60;;;;;;;20.43;52.44;98223.69;10278830;28;20128;-56
2023/09/27 08:23:16;;;;;;;14.43;6.28;;;;;;;20.41;51.41;98198.31;10273728;28;20121;-52
2023/09/27 08:28:16;;;;;;;10.23;6.57;;;;;;;20.64;51.47;98216.84;10276280;28;20048;-54
2023/09/27 08:33:15;;;;;;;13.68;7.13;;;;;;;20.95;51.36;98220.19;10274561;28;20627;-55
2023/09/27 08:38:14;;;;;;;11.57;5.93;;;;;;;20.92;50.60;98214.09;10279521;28;20540;-54
2023/09/27 08:43:15;;;;;;;13.73;6.25;;;;;;;20.60;50.66;98154.56;10277450;28;20030;-54
2023/09/27 08:48:18;;;;;;;9.60;6.35;;;;;;;21.20;50.60;98196.41;10276302;28;20153;-52
2023/09/27 08:53:17;;;;;;;13.40;6.40;;;;;;;21.45;50.23;98199.00;10278893;28;20686;-51
2023/09/27 08:58:18;;;;;;;15.32;6.45;;;;;;;21.90;49.45;98196.38;10278229;28;20865;-52
2023/09/27 09:03:18;;;;;;;9.85;5.60;;;;;;;21.71;48.40;98188.31;10272012;28;20161;-52
2023/09/27 09:08:18;;;;;;;8.93;5.95;;;;;;;21.75;48.58;98183.75;10266959;28;20153;-52
2023/09/27 09:13:22;;;;;;;14.75;5.57;;;;;;;21.92;48.65;98180.44;10275196;28;20133;-53
2023/09/27 09:18:30;;;;;;;14.23;6.05;;;;;;;22.16;48.37;98178.66;10272658;28;20144;-52
2023/09/27 09:23:33;;;;;;;15.77;6.47;;;;;;;22.49;48.74;98172.88;10265529;28;20109;-52
2023/09/27 09:28:33;;;;;;;14.55;5.75;;;;;;;22.51;47.72;98169.22;10254295;28;20144;-53
2023/09/27 09:33:37;;;;;;;15.98;7.03;;;;;;;22.89;47.11;98160.59;10262115;28;20116;-53
2023/09/27 09:38:36;;;;;;;11.45;5.47;;;;;;;23.15;47.29;98157.59;10271347;28;20172;-53
2023/09/27 09:43:37;;;;;;;11.15;5.85;;;;;;;22.85;47.12;98151.91;10270584;28;20018;-53
2023/09/27 09:48:38;;;;;;;9.77;5.68;;;;;;;22.78;46.74;98138.09;10272369;28;20124;-53
2023/09/27 09:53:39;;;;;;;16.33;6.05;;;;;;;23.03;46.24;98142.28;10270344;28;20132;-53
2023/09/27 09:58:46;;;;;;;10.80;4.75;;;;;;;23.08;45.60;98142.09;10269351;28;20274;-53
2023/09/27 10:03:48;;;;;;;12.50;6.00;;;;;;;22.85;46.67;98149.25;10273724;28;20132;-53
2023/09/27 10:08:48;;;;;;;9.85;5.57;;;;;;;22.65;47.05;98131.59;10271468;28;20213;-53
2023/09/27 10:13:48;;;;;;;16.08;5.93;;;;;;;22.73;47.90;98133.91;10275591;28;20129;-53
2023/09/27 10:18:47;;;;;;;9.88;5.82;;;;;;;23.05;47.16;98115.75;10258930;28;20171;-54
2023/09/27 10:23:45;;;;;;;18.98;6.00;;;;;;;22.85;46.90;98114.00;10275075;28;20128;-53
2023/09/27 10:29:06;;;;;;;11.65;5.65;;;;;;;23.28;46.54;98118.19;10277787;28;20037;-53
2023/09/27 10:34:24;;;;;;;12.68;5.32;;;;;;;23.17;46.68;98113.41;10277008;28;20117;-53
2023/09/27 10:39:23;;;;;;;14.32;5.35;;;;;;;23.45;45.10;98090.91;10277829;28;20144;-54
2023/09/27 10:44:30;;;;;;;14.05;5.78;;;;;;;23.75;44.68;98103.66;10282027;28;20120;-53
2023/09/27 10:49:38;;;;;;;12.93;5.70;;;;;;;23.60;44.48;98068.16;10282374;28;20136;-53
2023/09/27 10:54:38;;;;;;;11.05;6.15;;;;;;;23.85;43.99;98086.34;10277593;28;20188;-53
2023/09/27 10:59:37;;;;;;;10.65;5.55;;;;;;;24.19;43.60;98076.72;10280126;28;20132;-54
2023/09/27 11:04:38;;;;;;;12.93;5.60;;;;;;;24.01;43.04;98074.06;10281709;28;20120;-54
2023/09/27 11:09:44;;;;;;;13.90;5.35;;;;;;;23.91;43.17;98048.06;10282607;28;20137;-54
2023/09/27 11:14:46;;;;;;;12.32;5.47;;;;;;;23.81;42.77;98066.22;10284169;28;20799;-53
2023/09/27 11:19:45;;;;;;;11.60;5.60;;;;;;;23.78;43.68;98024.00;10282745;28;20117;-53
2023/09/27 11:24:44;;;;;;;14.32;5.70;;;;;;;24.08;44.05;98057.84;10285124;28;20038;-54
2023/09/27 11:29:43;;;;;;;11.43;5.60;;;;;;;24.16;42.29;98023.81;10285589;28;20121;-54
2023/09/27 11:34:42;;;;;;;12.07;5.57;;;;;;;23.96;41.53;98028.38;10286496;28;20030;-54
2023/09/27 11:39:50;;;;;;;13.73;5.20;;;;;;;23.94;42.06;98032.88;10284113;28;20464;-53
2023/09/27 11:45:06;;;;;;;11.43;5.28;;;;;;;24.28;41.52;98045.28;10284037;28;20058;-53
2023/09/27 11:50:05;;;;;;;11.07;5.18;;;;;;;24.18;41.14;98038.75;10282985;28;20576;-53
2023/09/27 11:55:06;;;;;;;13.25;5.82;;;;;;;24.27;41.31;98024.16;10283064;28;20120;-53
2023/09/27 12:00:13;;;;;;;11.18;5.00;;;;;;;24.32;41.33;98039.84;10265066;28;20092;-53
2023/09/27 12:05:15;;;;;;;12.20;5.20;;;;;;;24.06;42.13;98039.34;10248555;28;20161;-52
2023/09/27 12:10:13;;;;;;;11.25;5.43;;;;;;;24.26;41.71;98035.69;10276812;28;20073;-53
2023/09/27 12:15:12;;;;;;;11.88;5.47;;;;;;;24.16;41.73;98029.97;10283720;28;20036;-52
2023/09/27 12:20:13;;;;;;;13.60;5.55;;;;;;;24.34;41.69;98028.19;10279667;28;20049;-52
2023/09/27 12:25:12;;;;;;;13.13;5.50;;;;;;;24.49;41.42;98024.72;10281639;28;20121;-54
2023/09/27 12:30:11;;;;;;;11.35;5.63;;;;;;;24.44;41.33;98018.81;10281727;28;20040;-53
2023/09/27 12:35:10;;;;;;;11.38;5.28;;;;;;;24.10;41.31;97964.03;10281593;28;20553;-52
2023/09/27 12:40:10;;;;;;;12.73;5.65;;;;;;;24.28;41.36;98016.09;10284190;28;20076;-53
2023/09/27 12:45:09;;;;;;;11.43;5.43;;;;;;;23.94;41.11;97981.66;10284226;28;20104;-52
2023/09/27 12:50:09;;;;;;;10.20;5.95;;;;;;;23.97;43.34;98008.00;10282340;28;20069;-53
2023/09/27 12:55:09;;;;;;;11.75;5.47;;;;;;;23.71;43.31;97966.94;10276383;28;20172;-52
2023/09/27 13:00:09;;;;;;;9.30;5.55;;;;;;;23.83;42.47;98006.06;10273659;28;20133;-53
2023/09/27 13:05:08;;;;;;;9.80;5.43;;;;;;;23.50;42.53;97956.50;10277380;28;20148;-53
2023/09/27 13:10:07;;;;;;;7.70;5.10;;;;;;;23.55;43.05;98007.44;10278470;28;20067;-53
2023/09/27 13:15:07;;;;;;;11.45;5.93;;;;;;;23.66;42.79;98000.78;10282956;28;20138;-52
2023/09/27 13:20:07;;;;;;;9.75;5.28;;;;;;;23.60;42.70;97976.28;10282409;28;20842;-52
2023/09/27 13:25:08;;;;;;;13.93;5.53;;;;;;;23.87;42.69;97991.72;10253791;28;20062;-53
2023/09/27 13:30:08;;;;;;;14.60;5.30;;;;;;;23.83;41.70;97982.22;10265337;28;20116;-53
2023/09/27 13:35:07;;;;;;;13.98;4.90;;;;;;;23.94;42.38;97985.16;10279247;28;20100;-53
2023/09/27 13:40:12;;;;;;;10.05;5.22;;;;;;;24.03;42.85;97984.69;10278961;28;20053;-54
2023/09/27 13:45:12;;;;;;;11.93;5.78;;;;;;;24.32;42.45;97978.84;10258902;28;20065;-54
2023/09/27 13:50:12;;;;;;;9.50;5.22;;;;;;;24.56;41.35;97979.31;10278322;28;20073;-53
2023/09/27 13:55:11;;;;;;;12.30;6.07;;;;;;;24.30;41.12;97975.41;10278559;28;20120;-53
2023/09/27 14:00:13;;;;;;;8.00;5.35;;;;;;;24.11;40.91;97978.13;10278970;28;20501;-54
2023/09/27 14:05:12;;;;;;;11.00;5.25;;;;;;;24.11;41.10;97964.88;10277683;28;20129;-53
2023/09/27 14:10:12;;;;;;;15.55;5.35;;;;;;;24.30;41.25;97968.28;10278188;28;20030;-53
2023/09/27 14:15:11;;;;;;;10.98;4.85;;;;;;;24.25;41.18;97952.63;10284285;28;20128;-54
2023/09/27 14:20:14;;;;;;;16.20;5.68;;;;;;;24.20;41.13;97957.31;10284012;28;20037;-54
2023/09/27 14:25:13;;;;;;;8.55;5.47;;;;;;;24.19;41.54;97960.03;10285580;28;20080;-53
2023/09/27 14:30:12;;;;;;;10.27;5.15;;;;;;;23.93;41.34;97967.53;10285965;28;20576;-56
2023/09/27 14:35:12;;;;;;;9.70;5.60;;;;;;;23.79;41.25;97960.28;10286180;28;20132;-52
2023/09/27 14:40:12;;;;;;;14.38;5.30;;;;;;;23.66;41.36;97963.69;10285340;28;20160;-53
2023/09/27 14:45:11;;;;;;;11.73;5.28;;;;;;;23.44;41.72;97965.59;10285113;28;20080;-53
2023/09/27 14:50:10;;;;;;;11.77;5.53;;;;;;;23.03;41.98;97946.41;10285167;28;20036;-52
2023/09/27 14:55:09;;;;;;;13.25;5.95;;;;;;;22.88;42.12;97912.75;10283655;28;20121;-58
2023/09/27 15:00:11;;;;;;;10.55;5.38;;;;;;;23.18;42.32;97977.44;10281797;28;20485;-57
2023/09/27 15:05:11;;;;;;;14.38;5.30;;;;;;;23.20;42.76;97972.06;10282167;28;20121;-51
2023/09/27 15:10:10;;;;;;;11.88;6.05;;;;;;;22.97;42.92;97936.97;10283639;28;20534;-52
2023/09/27 15:15:12;;;;;;;10.25;5.95;;;;;;;23.27;42.56;97980.56;10281664;28;20116;-52
2023/09/27 15:20:12;;;;;;;9.77;5.30;;;;;;;23.32;42.81;97981.19;10276924;28;20145;-52
2023/09/27 15:25:12;;;;;;;8.43;5.40;;;;;;;23.28;43.05;97982.28;10261770;28;20161;-53
2023/09/27 15:30:11;;;;;;;15.60;6.07;;;;;;;23.30;42.83;97991.00;10262047;28;20136;-53
2023/09/27 15:35:10;;;;;;;11.25;6.10;;;;;;;23.20;43.03;97986.16;10281894;28;20137;-53
2023/09/27 15:40:09;;;;;;;21.00;6.57;;;;;;;23.16;43.17;97981.97;10264964;28;20040;-53
2023/09/27 15:45:08;;;;;;;10.98;6.10;;;;;;;23.08;43.60;97985.91;10261607;28;20064;-54
2023/09/27 15:50:08;;;;;;;11.60;6.25;;;;;;;22.96;43.48;97984.69;10281957;28;20490;-54
2023/09/27 15:55:09;;;;;;;16.45;6.88;;;;;;;22.87;44.43;97983.34;10264746;28;20057;-56
2023/09/27 16:00:11;;;;;;;16.98;6.90;;;;;;;22.72;44.79;97989.34;10281976;28;20093;-54
2023/09/27 16:05:10;;;;;;;17.33;7.32;;;;;;;22.59;45.28;97981.09;10281997;28;20480;-53
2023/09/27 16:10:09;;;;;;;16.42;7.20;;;;;;;22.39;46.18;97988.16;10281577;28;21203;-53
2023/09/27 16:15:09;;;;;;;19.15;7.70;;;;;;;22.04;46.95;97957.13;10281013;28;20122;-53
2023/09/27 16:20:08;;;;;;;19.50;8.35;;;;;;;22.00;47.85;97998.69;10275659;28;20129;-53
2023/09/27 16:25:08;;;;;;;13.60;8.05;;;;;;;21.48;48.28;97938.38;10265590;28;20064;-53
2023/09/27 16:30:07;;;;;;;22.00;8.75;;;;;;;21.59;49.28;98000.41;10280343;28;20145;-52
2023/09/27 16:35:06;;;;;;;17.70;8.80;;;;;;;21.34;50.75;97998.81;10279934;28;20130;-52
2023/09/27 16:40:06;;;;;;;19.08;9.13;;;;;;;21.04;51.92;98003.50;10281340;28;20129;-52
2023/09/27 16:45:05;;;;;;;16.63;8.63;;;;;;;20.23;52.37;97910.72;10280528;28;20061;-52
2023/09/27 16:50:05;;;;;;;24.30;11.35;;;;;;;20.65;52.95;98006.72;10280746;28;20066;-53
2023/09/27 16:55:04;;;;;;;16.92;9.68;;;;;;;20.47;53.09;98013.56;10280847;28;20137;-53
2023/09/27 17:00:06;;;;;;;19.67;10.68;;;;;;;19.87;53.55;97950.66;10279154;28;20468;-53
2023/09/27 17:05:07;;;;;;;17.38;9.20;;;;;;;20.11;53.72;98021.84;10278375;28;20125;-53
2023/09/27 17:10:06;;;;;;;21.27;10.18;;;;;;;20.02;53.99;98019.53;10280038;28;20516;-51
2023/09/27 17:15:06;;;;;;;23.13;9.98;;;;;;;19.90;54.40;98019.97;10266407;28;20491;-52
2023/09/27 17:20:08;;;;;;;16.20;8.57;;;;;;;19.77;54.57;98028.28;10272215;28;20548;-52
2023/09/27 17:25:08;;;;;;;13.90;7.85;;;;;;;19.68;54.59;98028.59;10280436;28;20120;-51
2023/09/27 17:30:08;;;;;;;17.90;8.90;;;;;;;19.60;54.73;98033.22;10278347;28;20073;-54
2023/09/27 17:35:09;;;;;;;17.30;9.30;;;;;;;19.59;55.24;98044.69;10278915;28;20061;-53
2023/09/27 17:40:09;;;;;;;17.67;10.10;;;;;;;19.51;55.79;98046.66;10278607;28;20084;-52
2023/09/27 17:45:08;;;;;;;15.35;8.45;;;;;;;19.30;56.37;98043.81;10279076;28;20064;-52
2023/09/27 17:50:07;;;;;;;14.80;8.60;;;;;;;19.31;56.44;98056.06;10285948;28;20077;-53
2023/09/27 17:55:08;;;;;;;12.95;7.60;;;;;;;19.02;56.76;98004.38;10287276;28;21787;-52
2023/09/27 18:00:08;;;;;;;11.07;6.80;;;;;;;19.17;57.07;98038.06;10271719;28;20141;-51
2023/09/27 18:05:07;;;;;;;14.82;7.07;;;;;;;19.13;57.13;98022.44;10282053;28;20072;-53
2023/09/27 18:10:07;;;;;;;14.73;8.00;;;;;;;19.20;57.82;98037.97;10286902;28;20195;-53
2023/09/27 18:15:07;;;;;;;12.07;6.97;;;;;;;19.01;57.67;98013.16;10275258;28;20121;-52
2023/09/27 18:20:06;;;;;;;17.83;7.30;;;;;;;19.23;57.86;98058.94;10275232;28;20506;-52
2023/09/27 18:25:06;;;;;;;11.25;7.03;;;;;;;19.22;57.98;98062.47;10277790;28;20068;-52
2023/09/27 18:30:06;;;;;;;12.98;6.53;;;;;;;19.19;57.92;98061.72;10254118;28;20120;-53
2023/09/27 18:35:05;;;;;;;13.40;7.45;;;;;;;18.90;58.17;98018.75;10276520;28;20133;-51
2023/09/27 18:40:05;;;;;;;10.82;7.15;;;;;;;19.10;58.20;98062.00;10253785;28;20088;-50
2023/09/27 18:45:04;;;;;;;13.32;6.95;;;;;;;18.88;58.40;98027.56;10285070;28;20125;-53
2023/09/27 18:50:04;;;;;;;16.15;8.60;;;;;;;18.97;58.50;98067.63;10283946;28;20122;-51
2023/09/27 18:55:03;;;;;;;13.93;7.50;;;;;;;18.91;58.50;98065.16;10284270;28;20117;-53
2023/09/27 19:00:03;;;;;;;19.27;8.18;;;;;;;18.90;58.82;98067.84;10282901;28;20132;-52
2023/09/27 19:05:02;;;;;;;15.48;8.15;;;;;;;18.84;59.03;98068.88;10284490;28;20113;-52
2023/09/27 19:10:01;;;;;;;15.75;7.82;;;;;;;18.75;58.75;98074.41;10283610;28;20065;-52
2023/09/27 19:15:00;;;;;;;12.77;7.55;;;;;;;18.59;58.84;98066.91;10253355;28;20537;-52
2023/09/27 19:19:59;;;;;;;13.40;6.97;;;;;;;18.51;59.32;98074.16;10241650;28;20485;-52
2023/09/27 19:24:59;;;;;;;14.95;7.30;;;;;;;18.41;59.00;98072.72;10245235;28;20476;-53
2023/09/27 19:29:58;;;;;;;18.25;7.03;;;;;;;18.06;59.31;98014.13;10242880;28;20073;-54
2023/09/27 19:34:57;;;;;;;14.98;7.55;;;;;;;17.18;59.49;97899.16;10242909;28;20030;-52
2023/09/27 19:39:56;;;;;;;10.40;6.50;;;;;;;17.90;59.93;98039.06;10224231;28;20046;-53
2023/09/27 19:44:55;;;;;;;13.50;6.60;;;;;;;17.90;60.03;98065.31;10242073;28;20572;-52
2023/09/27 19:49:54;;;;;;;10.10;7.00;;;;;;;17.75;60.40;98070.00;10242056;28;20551;-50
2023/09/27 19:54:53;;;;;;;10.25;6.30;;;;;;;17.41;60.39;98024.50;10242789;28;20034;-52
2023/09/27 19:59:52;;;;;;;10.65;6.78;;;;;;;17.55;60.79;98064.38;10241482;28;20825;-52
2023/09/27 20:04:53;;;;;;;14.07;7.30;;;;;;;17.47;61.27;98071.56;10241391;28;20216;-53
2023/09/27 20:09:52;;;;;;;15.82;6.90;;;;;;;17.27;61.86;98070.28;10241558;28;20744;-52
2023/09/27 20:14:51;;;;;;;14.35;7.13;;;;;;;17.17;62.35;98060.00;10240422;28;20172;-52
2023/09/27 20:19:50;;;;;;;12.35;7.00;;;;;;;17.05;62.40;98059.41;10241024;28;20036;-52
2023/09/27 20:24:49;;;;;;;11.85;6.80;;;;;;;16.99;62.62;98061.31;10240640;28;20109;-53
2023/09/27 20:29:48;;;;;;;11.85;7.30;;;;;;;16.86;62.89;98061.56;10240176;28;20501;-51
2023/09/27 20:34:47;;;;;;;14.50;7.18;;;;;;;16.44;63.43;98006.53;10240511;28;20044;-52
2023/09/27 20:39:46;;;;;;;;;;;;;;;16.70;63.88;98057.53;10240775;28;20553;-50
2023/09/27 20:44:45;;;;;;;9.40;6.87;;;;;;;16.58;63.91;98057.75;10239509;28;20367;-53
2023/09/27 20:49:44;;;;;;;8.85;6.50;;;;;;;16.48;64.10;98057.94;10221134;28;20129;-52
2023/09/27 20:54:44;;;;;;;12.40;6.75;;;;;;;16.42;64.35;98062.41;10240300;28;20113;-52
2023/09/27 20:59:43;;;;;;;13.93;7.07;;;;;;;16.14;64.57;98022.81;10240781;28;20126;-51
2023/09/27 21:04:42;;;;;;;11.68;6.85;;;;;;;16.28;64.24;98054.84;10240933;28;20034;-52
2023/09/27 21:09:41;;;;;;;;;;;;;;;16.23;64.33;98046.19;10233387;28;20048;-52
2023/09/27 21:14:40;;;;;;;12.48;6.85;;;;;;;16.04;64.33;98009.03;10228877;28;19965;-50
2023/09/27 21:19:39;;;;;;;15.15;6.72;;;;;;;16.22;64.50;98044.50;10233555;28;20482;-52
2023/09/27 21:24:37;;;;;;;;;;;;;;;16.13;64.77;98037.66;10233035;28;20580;-52
2023/09/27 21:29:36;;;;;;;11.73;7.00;;;;;;;16.12;65.08;98045.56;10233473;28;20373;-51
2023/09/27 21:34:35;;;;;;;10.60;6.85;;;;;;;16.01;65.25;98041.38;10236860;28;20133;-52
2023/09/27 21:39:35;;;;;;;;;;;;;;;15.96;66.02;98042.34;10229513;28;20528;-52
2023/09/27 21:44:34;;;;;;;16.80;6.97;;;;;;;15.87;66.34;98032.91;10235393;28;19972;-51
2023/09/27 21:49:33;;;;;;;;;;;;;;;15.82;66.57;98034.75;10223934;28;20026;-50
2023/09/27 21:54:32;;;;;;;13.57;6.78;;;;;;;15.73;66.83;98040.09;10234437;28;20279;-52
2023/09/27 21:59:31;;;;;;;;;;;;;;;15.60;67.18;98035.09;10229297;28;20049;-52
2023/09/27 22:04:30;;;;;;;13.93;6.93;;;;;;;15.54;67.43;98031.72;10236237;28;20396;-52
2023/09/27 22:09:32;;;;;;;;;;;;;;;15.45;67.78;98019.63;10233412;28;20083;-51
2023/09/27 22:14:34;;;;;;;14.38;7.22;;;;;;;15.37;67.93;98011.06;10229758;28;20000;-52
2023/09/27 22:19:33;;;;;;;12.90;6.70;;;;;;;15.14;68.80;97993.97;10232457;28;20572;-50
2023/09/27 22:24:33;;;;;;;13.38;7.20;;;;;;;15.17;68.52;98013.97;10229932;28;20596;-51
2023/09/27 22:29:33;;;;;;;10.07;6.43;;;;;;;15.13;68.65;98004.44;10237769;28;20054;-52
2023/09/27 22:34:36;;;;;;;;;;;;;;;15.06;68.67;98006.31;10245469;28;20045;-52
2023/09/27 22:39:45;;;;;;;10.18;6.20;;;;;;;14.89;68.60;97974.31;10244921;28;20033;-52
2023/09/27 22:44:44;;;;;;;12.97;6.60;;;;;;;15.03;68.06;98003.72;10245473;28;20069;-51
2023/09/27 22:49:43;;;;;;;;;;;;;;;14.94;68.47;98003.84;10245679;28;20038;-51
2023/09/27 22:54:42;;;;;;;10.68;6.43;;;;;;;14.93;68.49;97996.91;10243603;28;19924;-52
2023/09/27 22:59:41;;;;;;;13.65;6.43;;;;;;;14.85;68.38;98006.59;10240866;28;20121;-52
2023/09/27 23:04:41;;;;;;;;;;;;;;;14.79;68.65;98003.19;10225376;28;20042;-50
2023/09/27 23:09:40;;;;;;;9.38;6.20;;;;;;;14.80;68.05;98007.56;10224812;28;19944;-53
2023/09/27 23:15:05;;;;;;;11.35;6.20;;;;;;;14.74;67.95;97999.78;10243972;28;20112;-49